createdAt,value
2017-08-06T00:00:52.516Z,59.8
2017-08-06T00:01:53.152Z,59.8
2017-08-06T00:02:53.792Z,59.7
2017-08-06T00:03:54.429Z,59.6
2017-08-06T00:04:55.068Z,59.7
2017-08-06T00:05:55.858Z,59.8
2017-08-06T00:06:56.493Z,60.0
2017-08-06T00:07:57.130Z,59.6
2017-08-06T00:08:57.773Z,60.0
2017-08-06T00:09:58.406Z,59.8
2017-08-06T00:10:59.045Z,59.7
2017-08-06T00:11:59.681Z,59.7
2017-08-06T00:13:00.322Z,59.8
2017-08-06T00:14:00.961Z,59.8
2017-08-06T00:15:01.601Z,59.8
2017-08-06T00:16:02.241Z,59.8
2017-08-06T00:17:02.879Z,59.9
2017-08-06T00:18:03.519Z,60.0
2017-08-06T00:19:04.158Z,59.7
2017-08-06T00:20:04.796Z,59.7
2017-08-06T00:21:05.683Z,59.8
2017-08-06T00:22:06.323Z,59.7
2017-08-06T00:23:06.963Z,60.0
2017-08-06T00:24:07.606Z,59.7
2017-08-06T00:25:08.251Z,59.7
2017-08-06T00:26:08.891Z,59.8
2017-08-06T00:27:09.528Z,60.0
2017-08-06T00:28:10.168Z,60.0
2017-08-06T00:29:10.808Z,59.8
2017-08-06T00:30:11.448Z,59.8
2017-08-06T00:31:12.086Z,59.8
2017-08-06T00:32:12.757Z,59.8
2017-08-06T00:33:13.396Z,59.8
2017-08-06T00:34:14.038Z,59.7
2017-08-06T00:35:14.674Z,59.8
2017-08-06T00:36:15.562Z,59.8
2017-08-06T00:37:16.200Z,59.8
2017-08-06T00:38:16.839Z,59.6
2017-08-06T00:39:17.476Z,59.8
2017-08-06T00:40:18.117Z,59.8
2017-08-06T00:41:18.755Z,59.8
2017-08-06T00:42:19.414Z,60.1
2017-08-06T00:43:20.034Z,59.8
2017-08-06T00:44:20.672Z,59.9
2017-08-06T00:45:21.310Z,59.8
2017-08-06T00:46:21.948Z,59.9
2017-08-06T00:47:22.585Z,60.1
2017-08-06T00:48:23.222Z,59.7
2017-08-06T00:49:23.861Z,60.0
2017-08-06T00:50:24.498Z,59.9
2017-08-06T00:51:25.393Z,60.1
2017-08-06T00:52:26.028Z,60.1
2017-08-06T00:53:26.664Z,60.0
2017-08-06T00:54:27.303Z,59.8
2017-08-06T00:55:27.940Z,59.8
2017-08-06T00:56:28.580Z,59.9
2017-08-06T00:57:29.217Z,59.8
2017-08-06T00:58:29.864Z,60.1
2017-08-06T00:59:30.495Z,60.1
2017-08-06T01:00:31.134Z,60.0
2017-08-06T01:01:31.774Z,59.8
2017-08-06T01:02:32.414Z,60.0
2017-08-06T01:03:33.054Z,60.0
2017-08-06T01:04:33.692Z,59.9
2017-08-06T01:05:34.329Z,60.1
2017-08-06T01:06:34.966Z,60.1
2017-08-06T01:07:35.606Z,60.1
2017-08-06T01:08:36.244Z,60.2
2017-08-06T01:09:36.884Z,59.9
2017-08-06T01:10:37.527Z,59.8
2017-08-06T01:11:38.161Z,59.8
2017-08-06T01:12:38.799Z,60.1
2017-08-06T01:13:39.436Z,60.0
2017-08-06T01:14:40.075Z,59.9
2017-08-06T01:15:40.712Z,60.0
2017-08-06T01:16:41.351Z,60.0
2017-08-06T01:17:41.989Z,60.0
2017-08-06T01:18:42.627Z,59.8
2017-08-06T01:19:43.265Z,59.9
2017-08-06T01:20:43.905Z,60.1
2017-08-06T01:21:44.694Z,60.0
2017-08-06T01:22:45.330Z,59.9
2017-08-06T01:23:45.969Z,59.9
2017-08-06T01:24:46.607Z,60.0
2017-08-06T01:25:47.244Z,59.9
2017-08-06T01:26:47.884Z,60.2
2017-08-06T01:27:48.522Z,60.0
2017-08-06T01:28:49.161Z,60.2
2017-08-06T01:29:49.799Z,59.9
2017-08-06T01:30:50.437Z,60.1
2017-08-06T01:31:51.077Z,59.9
2017-08-06T01:32:51.713Z,59.9
2017-08-06T01:33:52.350Z,59.9
2017-08-06T01:34:52.987Z,60.0
2017-08-06T01:35:53.627Z,59.9
2017-08-06T01:36:54.416Z,59.9
2017-08-06T01:37:55.056Z,60.1
2017-08-06T01:38:55.696Z,59.9
2017-08-06T01:39:56.338Z,60.0
2017-08-06T01:40:56.990Z,60.1
2017-08-06T01:41:57.621Z,60.0
2017-08-06T01:42:58.260Z,59.9
2017-08-06T01:43:58.897Z,60.1
2017-08-06T01:44:59.535Z,60.0
2017-08-06T01:46:00.172Z,60.0
2017-08-06T01:47:00.816Z,60.1
2017-08-06T01:48:01.451Z,60.2
2017-08-06T01:49:02.087Z,60.2
2017-08-06T01:50:02.725Z,60.2
2017-08-06T01:51:03.362Z,60.0
2017-08-06T01:52:04.404Z,60.0
2017-08-06T01:53:05.043Z,60.2
2017-08-06T01:54:05.686Z,60.2
2017-08-06T01:55:06.324Z,60.2
2017-08-06T01:56:06.962Z,60.2
2017-08-06T01:57:07.598Z,59.9
2017-08-06T01:58:08.236Z,60.1
2017-08-06T01:59:08.876Z,60.1
2017-08-06T02:00:09.514Z,60.2
2017-08-06T02:01:10.151Z,60.1
2017-08-06T02:02:10.791Z,60.3
2017-08-06T02:03:11.431Z,59.9
2017-08-06T02:04:12.071Z,59.9
2017-08-06T02:05:12.710Z,60.1
2017-08-06T02:06:13.350Z,60.2
2017-08-06T02:07:14.086Z,60.3
2017-08-06T02:08:14.728Z,59.9
2017-08-06T02:09:15.366Z,60.2
2017-08-06T02:10:16.005Z,59.9
2017-08-06T02:11:16.645Z,60.1
2017-08-06T02:12:17.308Z,60.1
2017-08-06T02:13:17.949Z,59.9
2017-08-06T02:14:18.586Z,60.1
2017-08-06T02:15:19.224Z,59.9
2017-08-06T02:16:19.863Z,60.1
2017-08-06T02:17:20.503Z,59.9
2017-08-06T02:18:21.141Z,60.0
2017-08-06T02:19:21.778Z,60.0
2017-08-06T02:20:22.416Z,60.1
2017-08-06T02:21:23.054Z,60.0
2017-08-06T02:22:23.944Z,60.1
2017-08-06T02:23:24.582Z,60.2
2017-08-06T02:24:25.221Z,60.0
2017-08-06T02:25:25.857Z,60.0
2017-08-06T02:26:26.494Z,60.0
2017-08-06T02:27:27.134Z,60.3
2017-08-06T02:28:27.771Z,60.3
2017-08-06T02:29:28.411Z,60.2
2017-08-06T02:30:29.056Z,60.3
2017-08-06T02:31:29.695Z,60.1
2017-08-06T02:32:30.336Z,60.1
2017-08-06T02:33:30.971Z,60.1
2017-08-06T02:34:31.610Z,60.3
2017-08-06T02:35:32.254Z,60.2
2017-08-06T02:36:32.890Z,60.4
2017-08-06T02:37:33.780Z,60.1
2017-08-06T02:38:34.415Z,60.8
2017-08-06T02:39:35.054Z,60.3
2017-08-06T02:40:35.693Z,60.1
2017-08-06T02:41:36.331Z,60.1
2017-08-06T02:42:36.971Z,60.1
2017-08-06T02:43:37.610Z,60.2
2017-08-06T02:44:38.246Z,60.2
2017-08-06T02:45:38.885Z,60.1
2017-08-06T02:46:39.521Z,60.3
2017-08-06T02:47:40.158Z,61.0
2017-08-06T02:48:40.796Z,60.8
2017-08-06T02:49:41.436Z,60.2
2017-08-06T02:50:42.074Z,60.4
2017-08-06T02:51:42.715Z,60.4
2017-08-06T02:52:43.607Z,60.8
2017-08-06T02:53:44.239Z,60.8
2017-08-06T02:54:44.877Z,60.8
2017-08-06T02:55:45.514Z,60.8
2017-08-06T02:56:46.154Z,60.8
2017-08-06T02:57:46.793Z,61.0
2017-08-06T02:58:47.433Z,60.8
2017-08-06T02:59:48.070Z,60.2
2017-08-06T03:00:48.709Z,60.3
2017-08-06T03:01:49.347Z,60.8
2017-08-06T03:02:49.982Z,60.3
2017-08-06T03:03:50.622Z,60.8
2017-08-06T03:04:51.257Z,60.7
2017-08-06T03:05:51.897Z,60.4
2017-08-06T03:06:52.535Z,60.9
2017-08-06T03:07:53.376Z,60.8
2017-08-06T03:08:54.022Z,60.7
2017-08-06T03:09:54.661Z,60.8
2017-08-06T03:10:55.299Z,60.6
2017-08-06T03:11:55.936Z,60.7
2017-08-06T03:12:56.575Z,60.6
2017-08-06T03:13:57.214Z,60.7
2017-08-06T03:14:57.855Z,60.6
2017-08-06T03:15:58.493Z,60.7
2017-08-06T03:16:59.132Z,60.6
2017-08-06T03:17:59.771Z,60.7
2017-08-06T03:19:00.409Z,60.6
2017-08-06T03:20:01.046Z,60.6
2017-08-06T03:21:01.684Z,60.5
2017-08-06T03:22:02.324Z,60.6
2017-08-06T03:23:03.062Z,60.4
2017-08-06T03:24:03.699Z,60.7
2017-08-06T03:25:04.337Z,60.6
2017-08-06T03:26:04.973Z,60.4
2017-08-06T03:27:05.612Z,60.6
2017-08-06T03:28:06.250Z,60.6
2017-08-06T03:29:06.889Z,60.4
2017-08-06T03:30:07.529Z,60.4
2017-08-06T03:31:08.167Z,60.7
2017-08-06T03:32:08.837Z,60.6
2017-08-06T03:33:09.476Z,60.5
2017-08-06T03:34:10.112Z,60.6
2017-08-06T03:35:10.752Z,60.5
2017-08-06T03:36:11.389Z,60.5
2017-08-06T03:37:12.027Z,60.5
2017-08-06T03:38:12.765Z,60.5
2017-08-06T03:39:13.404Z,60.3
2017-08-06T03:40:14.042Z,60.5
2017-08-06T03:41:14.682Z,60.5
2017-08-06T03:42:15.321Z,60.7
2017-08-06T03:43:15.959Z,60.5
2017-08-06T03:44:16.598Z,60.4
2017-08-06T03:45:17.240Z,60.7
2017-08-06T03:46:17.885Z,60.4
2017-08-06T03:47:18.528Z,60.6
2017-08-06T03:48:19.172Z,60.6
2017-08-06T03:49:19.811Z,60.5
2017-08-06T03:50:20.449Z,60.5
2017-08-06T03:51:21.100Z,60.5
2017-08-06T03:52:21.726Z,60.3
2017-08-06T03:53:22.515Z,60.3
2017-08-06T03:54:23.155Z,60.5
2017-08-06T03:55:23.799Z,60.2
2017-08-06T03:56:24.434Z,60.7
2017-08-06T03:57:25.071Z,60.7
2017-08-06T03:58:25.706Z,60.2
2017-08-06T03:59:26.342Z,60.8
2017-08-06T04:00:26.982Z,60.5
2017-08-06T04:01:27.620Z,60.2
2017-08-06T04:02:28.260Z,60.4
2017-08-06T04:03:28.899Z,60.3
2017-08-06T04:04:29.537Z,60.6
2017-08-06T04:05:30.177Z,60.7
2017-08-06T04:06:30.818Z,60.5
2017-08-06T04:07:31.454Z,60.1
2017-08-06T04:08:32.243Z,60.1
2017-08-06T04:09:32.880Z,60.2
2017-08-06T04:10:33.518Z,60.9
2017-08-06T04:11:34.157Z,60.2
2017-08-06T04:12:34.793Z,60.4
2017-08-06T04:13:35.434Z,60.2
2017-08-06T04:14:36.075Z,60.2
2017-08-06T04:15:36.711Z,60.4
2017-08-06T04:16:37.350Z,60.8
2017-08-06T04:17:37.989Z,60.2
2017-08-06T04:18:38.626Z,60.2
2017-08-06T04:19:39.263Z,60.6
2017-08-06T04:20:39.900Z,60.0
2017-08-06T04:21:40.537Z,60.1
2017-08-06T04:22:41.182Z,60.2
2017-08-06T04:23:41.915Z,60.4
2017-08-06T04:24:42.552Z,60.5
2017-08-06T04:25:43.189Z,60.2
2017-08-06T04:26:43.834Z,60.4
2017-08-06T04:27:44.466Z,60.8
2017-08-06T04:28:45.106Z,60.2
2017-08-06T04:29:45.745Z,60.4
2017-08-06T04:30:46.384Z,60.0
2017-08-06T04:31:47.024Z,60.8
2017-08-06T04:32:47.663Z,60.7
2017-08-06T04:33:48.302Z,60.3
2017-08-06T04:34:48.942Z,60.1
2017-08-06T04:35:49.579Z,60.1
2017-08-06T04:36:50.217Z,60.2
2017-08-06T04:37:50.856Z,60.1
2017-08-06T04:38:51.643Z,60.7
2017-08-06T04:39:52.291Z,60.4
2017-08-06T04:40:52.926Z,60.3
2017-08-06T04:41:53.565Z,60.2
2017-08-06T04:42:54.202Z,60.4
2017-08-06T04:43:54.838Z,60.0
2017-08-06T04:44:55.477Z,60.4
2017-08-06T04:45:56.116Z,60.2
2017-08-06T04:46:56.755Z,60.2
2017-08-06T04:47:57.391Z,60.6
2017-08-06T04:48:58.029Z,60.5
2017-08-06T04:49:58.667Z,60.5
2017-08-06T04:50:59.304Z,60.4
2017-08-06T04:51:59.943Z,60.5
2017-08-06T04:53:00.581Z,60.6
2017-08-06T04:54:01.471Z,60.6
2017-08-06T04:55:02.108Z,60.1
2017-08-06T04:56:02.747Z,60.6
2017-08-06T04:57:03.384Z,60.0
2017-08-06T04:58:04.021Z,60.5
2017-08-06T04:59:04.661Z,60.6
2017-08-06T05:00:05.299Z,60.6
2017-08-06T05:01:05.939Z,60.5
2017-08-06T05:02:06.576Z,60.1
2017-08-06T05:03:07.224Z,60.9
2017-08-06T05:04:07.860Z,60.0
2017-08-06T05:05:08.500Z,60.6
2017-08-06T05:06:09.139Z,60.5
2017-08-06T05:07:09.778Z,60.6
2017-08-06T05:08:10.418Z,60.6
2017-08-06T05:09:11.207Z,60.4
2017-08-06T05:10:11.845Z,60.7
2017-08-06T05:11:12.484Z,60.6
2017-08-06T05:12:13.155Z,60.4
2017-08-06T05:13:13.795Z,60.9
2017-08-06T05:14:14.435Z,60.9
2017-08-06T05:15:15.076Z,60.4
2017-08-06T05:16:15.722Z,61.0
2017-08-06T05:17:16.362Z,60.5
2017-08-06T05:18:17.000Z,60.9
2017-08-06T05:19:17.640Z,61.0
2017-08-06T05:20:18.280Z,60.4
2017-08-06T05:21:18.919Z,60.6
2017-08-06T05:22:19.558Z,60.6
2017-08-06T05:23:20.199Z,60.9
2017-08-06T05:24:20.989Z,60.6
2017-08-06T05:25:21.627Z,60.6
2017-08-06T05:26:22.266Z,60.8
2017-08-06T05:27:22.904Z,60.6
2017-08-06T05:28:23.540Z,60.6
2017-08-06T05:29:24.178Z,60.4
2017-08-06T05:30:24.815Z,60.6
2017-08-06T05:31:25.454Z,60.5
2017-08-06T05:32:26.092Z,60.5
2017-08-06T05:33:26.731Z,60.6
2017-08-06T05:34:27.370Z,60.8
2017-08-06T05:35:28.011Z,60.6
2017-08-06T05:36:28.653Z,60.5
2017-08-06T05:37:29.292Z,60.9
2017-08-06T05:38:29.931Z,60.5
2017-08-06T05:39:30.821Z,60.9
2017-08-06T05:40:31.458Z,60.6
2017-08-06T05:41:32.094Z,60.8
2017-08-06T05:42:32.752Z,60.7
2017-08-06T05:43:33.370Z,60.9
2017-08-06T05:44:34.011Z,60.6
2017-08-06T05:45:34.668Z,60.5
2017-08-06T05:46:35.289Z,60.6
2017-08-06T05:47:35.928Z,60.6
2017-08-06T05:48:36.566Z,60.5
2017-08-06T05:49:37.203Z,60.5
2017-08-06T05:50:37.841Z,60.9
2017-08-06T05:51:38.479Z,60.8
2017-08-06T05:52:39.117Z,60.8
2017-08-06T05:53:39.758Z,60.9
2017-08-06T05:54:40.496Z,60.6
2017-08-06T05:55:41.134Z,60.5
2017-08-06T05:56:41.770Z,60.9
2017-08-06T05:57:42.409Z,60.8
2017-08-06T05:58:43.046Z,60.9
2017-08-06T05:59:43.685Z,60.8
2017-08-06T06:00:44.322Z,60.8
2017-08-06T06:01:44.961Z,60.9
2017-08-06T06:02:45.599Z,60.9
2017-08-06T06:03:46.237Z,60.9
2017-08-06T06:04:46.873Z,61.0
2017-08-06T06:05:47.510Z,60.9
2017-08-06T06:06:48.154Z,60.6
2017-08-06T06:07:48.794Z,60.9
2017-08-06T06:08:49.431Z,61.0
2017-08-06T06:09:50.169Z,61.0
2017-08-06T06:10:50.805Z,60.8
2017-08-06T06:11:51.444Z,60.9
2017-08-06T06:12:52.084Z,60.9
2017-08-06T06:13:52.722Z,60.9
2017-08-06T06:14:53.359Z,60.9
2017-08-06T06:15:53.996Z,61.1
2017-08-06T06:16:54.636Z,60.9
2017-08-06T06:17:55.284Z,61.0
2017-08-06T06:18:55.923Z,60.9
2017-08-06T06:19:56.563Z,60.8
2017-08-06T06:20:57.201Z,60.5
2017-08-06T06:21:57.839Z,60.9
2017-08-06T06:22:58.479Z,60.7
2017-08-06T06:23:59.117Z,60.4
2017-08-06T06:24:59.856Z,60.9
2017-08-06T06:26:00.494Z,60.6
2017-08-06T06:27:01.130Z,60.6
2017-08-06T06:28:01.770Z,60.6
2017-08-06T06:29:02.410Z,60.5
2017-08-06T06:30:03.048Z,60.6
2017-08-06T06:31:03.689Z,60.5
2017-08-06T06:32:04.326Z,60.6
2017-08-06T06:33:04.967Z,60.6
2017-08-06T06:34:05.606Z,60.9
2017-08-06T06:35:06.247Z,60.9
2017-08-06T06:36:06.887Z,61.0
2017-08-06T06:37:07.521Z,60.5
2017-08-06T06:38:08.158Z,60.8
2017-08-06T06:39:08.803Z,60.6
2017-08-06T06:40:09.541Z,60.9
2017-08-06T06:41:10.179Z,60.6
2017-08-06T06:42:10.817Z,60.9
2017-08-06T06:43:11.467Z,60.9
2017-08-06T06:44:12.105Z,60.9
2017-08-06T06:45:12.741Z,60.5
2017-08-06T06:46:13.379Z,60.6
2017-08-06T06:47:14.018Z,60.6
2017-08-06T06:48:14.663Z,60.1
2017-08-06T06:49:15.295Z,60.9
2017-08-06T06:50:15.935Z,60.5
2017-08-06T06:51:16.571Z,60.6
2017-08-06T06:52:17.207Z,60.6
2017-08-06T06:53:17.845Z,61.0
2017-08-06T06:54:18.484Z,60.5
2017-08-06T06:55:19.220Z,60.9
2017-08-06T06:56:19.862Z,60.9
2017-08-06T06:57:20.496Z,61.0
2017-08-06T06:58:21.134Z,60.8
2017-08-06T06:59:21.773Z,60.8
2017-08-06T07:00:22.412Z,60.7
2017-08-06T07:01:23.051Z,60.6
2017-08-06T07:02:23.688Z,60.9
2017-08-06T07:03:24.326Z,61.1
2017-08-06T07:04:24.965Z,61.0
2017-08-06T07:05:25.603Z,60.5
2017-08-06T07:06:26.242Z,60.6
2017-08-06T07:07:26.878Z,60.5
2017-08-06T07:08:27.517Z,60.6
2017-08-06T07:09:28.156Z,60.9
2017-08-06T07:10:28.894Z,60.5
2017-08-06T07:11:29.532Z,60.5
2017-08-06T07:12:30.171Z,60.2
2017-08-06T07:13:30.806Z,60.6
2017-08-06T07:14:31.444Z,60.2
2017-08-06T07:15:32.082Z,60.9
2017-08-06T07:16:32.723Z,60.6
2017-08-06T07:17:33.365Z,60.5
2017-08-06T07:18:34.001Z,60.8
2017-08-06T07:19:34.640Z,60.5
2017-08-06T07:20:35.278Z,60.5
2017-08-06T07:21:35.917Z,60.9
2017-08-06T07:22:36.556Z,60.2
2017-08-06T07:23:37.196Z,60.7
2017-08-06T07:24:37.834Z,60.5
2017-08-06T07:25:38.472Z,60.5
2017-08-06T07:26:39.108Z,60.5
2017-08-06T07:27:39.744Z,60.4
2017-08-06T07:28:40.384Z,60.7
2017-08-06T07:29:41.022Z,60.5
2017-08-06T07:30:41.662Z,60.5
2017-08-06T07:31:42.300Z,60.5
2017-08-06T07:32:42.939Z,60.7
2017-08-06T07:33:43.579Z,60.5
2017-08-06T07:34:44.219Z,60.5
2017-08-06T07:35:44.856Z,60.4
2017-08-06T07:36:45.493Z,60.7
2017-08-06T07:37:46.130Z,60.4
2017-08-06T07:38:46.768Z,60.0
2017-08-06T07:39:47.408Z,60.0
2017-08-06T07:40:48.295Z,60.2
2017-08-06T07:41:48.934Z,60.5
2017-08-06T07:42:49.573Z,60.1
2017-08-06T07:43:50.211Z,60.5
2017-08-06T07:44:50.849Z,60.5
2017-08-06T07:45:51.485Z,60.6
2017-08-06T07:46:52.125Z,60.4
2017-08-06T07:47:52.762Z,60.6
2017-08-06T07:48:53.402Z,60.2
2017-08-06T07:49:54.040Z,60.4
2017-08-06T07:50:54.679Z,60.6
2017-08-06T07:51:55.316Z,59.9
2017-08-06T07:52:55.960Z,60.6
2017-08-06T07:53:56.594Z,60.7
2017-08-06T07:54:57.229Z,60.6
2017-08-06T07:55:58.118Z,60.2
2017-08-06T07:56:58.756Z,60.4
2017-08-06T07:57:59.397Z,59.9
2017-08-06T07:59:00.035Z,60.0
2017-08-06T08:00:00.672Z,60.6
2017-08-06T08:01:01.310Z,60.4
2017-08-06T08:02:01.947Z,60.5
2017-08-06T08:03:02.587Z,60.1
2017-08-06T08:04:03.223Z,60.2
2017-08-06T08:05:03.862Z,60.6
2017-08-06T08:06:04.500Z,60.4
2017-08-06T08:07:05.139Z,60.2
2017-08-06T08:08:05.778Z,60.4
2017-08-06T08:09:06.427Z,60.5
2017-08-06T08:10:07.058Z,60.6
2017-08-06T08:11:07.948Z,60.4
2017-08-06T08:12:08.588Z,60.4
2017-08-06T08:13:09.249Z,60.2
2017-08-06T08:14:09.885Z,60.7
2017-08-06T08:15:10.524Z,60.1
2017-08-06T08:16:11.161Z,60.4
2017-08-06T08:17:11.800Z,60.6
2017-08-06T08:18:12.439Z,60.2
2017-08-06T08:19:13.076Z,60.4
2017-08-06T08:20:13.714Z,60.7
2017-08-06T08:21:14.352Z,60.6
2017-08-06T08:22:14.989Z,60.5
2017-08-06T08:23:15.637Z,60.5
2017-08-06T08:24:16.268Z,60.7
2017-08-06T08:25:16.906Z,60.2
2017-08-06T08:26:17.796Z,60.2
2017-08-06T08:27:18.435Z,60.6
2017-08-06T08:28:19.074Z,60.6
2017-08-06T08:29:19.712Z,60.2
2017-08-06T08:30:20.351Z,60.3
2017-08-06T08:31:20.987Z,60.1
2017-08-06T08:32:21.624Z,60.7
2017-08-06T08:33:22.263Z,60.6
2017-08-06T08:34:22.901Z,60.7
2017-08-06T08:35:23.540Z,60.5
2017-08-06T08:36:24.179Z,60.4
2017-08-06T08:37:24.817Z,60.5
2017-08-06T08:38:25.454Z,60.1
2017-08-06T08:39:26.093Z,60.4
2017-08-06T08:40:26.730Z,60.7
2017-08-06T08:41:27.619Z,60.6
2017-08-06T08:42:28.258Z,60.4
2017-08-06T08:43:28.899Z,60.5
2017-08-06T08:44:29.536Z,60.1
2017-08-06T08:45:30.175Z,60.4
2017-08-06T08:46:30.813Z,60.5
2017-08-06T08:47:31.450Z,60.5
2017-08-06T08:48:32.088Z,60.5
2017-08-06T08:49:32.726Z,60.5
2017-08-06T08:50:33.363Z,60.4
2017-08-06T08:51:34.003Z,60.4
2017-08-06T08:52:34.641Z,60.5
2017-08-06T08:53:35.281Z,60.6
2017-08-06T08:54:35.920Z,60.5
2017-08-06T08:55:36.558Z,60.4
2017-08-06T08:56:37.447Z,60.5
2017-08-06T08:57:38.084Z,60.6
2017-08-06T08:58:38.725Z,60.6
2017-08-06T08:59:39.360Z,60.7
2017-08-06T09:00:40.001Z,60.5
2017-08-06T09:01:40.640Z,60.6
2017-08-06T09:02:41.279Z,60.5
2017-08-06T09:03:41.917Z,60.6
2017-08-06T09:04:42.555Z,60.5
2017-08-06T09:05:43.193Z,60.5
2017-08-06T09:06:43.831Z,60.6
2017-08-06T09:07:44.468Z,60.6
2017-08-06T09:08:45.107Z,60.4
2017-08-06T09:09:45.746Z,60.6
2017-08-06T09:10:46.386Z,60.1
2017-08-06T09:11:47.176Z,60.5
2017-08-06T09:12:47.815Z,60.4
2017-08-06T09:13:48.453Z,60.4
2017-08-06T09:14:49.094Z,60.4
2017-08-06T09:15:49.731Z,60.7
2017-08-06T09:16:50.369Z,60.7
2017-08-06T09:17:51.007Z,60.5
2017-08-06T09:18:51.644Z,60.4
2017-08-06T09:19:52.283Z,60.7
2017-08-06T09:20:52.921Z,60.5
2017-08-06T09:21:53.559Z,60.4
2017-08-06T09:22:54.195Z,60.7
2017-08-06T09:23:54.836Z,60.4
2017-08-06T09:24:55.473Z,60.8
2017-08-06T09:25:56.110Z,60.2
2017-08-06T09:26:56.849Z,60.5
2017-08-06T09:27:57.487Z,60.2
2017-08-06T09:28:58.126Z,60.4
2017-08-06T09:29:58.766Z,60.4
2017-08-06T09:30:59.405Z,60.3
2017-08-06T09:32:00.044Z,60.3
2017-08-06T09:33:00.684Z,60.4
2017-08-06T09:34:01.324Z,60.3
2017-08-06T09:35:01.964Z,60.2
2017-08-06T09:36:02.601Z,60.3
2017-08-06T09:37:03.236Z,60.4
2017-08-06T09:38:03.874Z,60.2
2017-08-06T09:39:04.512Z,60.0
2017-08-06T09:40:05.150Z,60.0
2017-08-06T09:41:05.790Z,60.0
2017-08-06T09:42:06.679Z,59.9
2017-08-06T09:43:07.317Z,60.1
2017-08-06T09:44:07.954Z,60.1
2017-08-06T09:45:08.592Z,59.8
2017-08-06T09:46:09.230Z,59.8
2017-08-06T09:47:09.868Z,59.8
2017-08-06T09:48:10.507Z,59.4
2017-08-06T09:49:11.145Z,59.7
2017-08-06T09:50:11.785Z,59.7
2017-08-06T09:51:12.423Z,59.7
2017-08-06T09:52:13.183Z,59.4
2017-08-06T09:53:13.820Z,59.7
2017-08-06T09:54:14.457Z,59.8
2017-08-06T09:55:15.095Z,59.7
2017-08-06T09:56:15.734Z,59.6
2017-08-06T09:57:16.473Z,59.7
2017-08-06T09:58:17.113Z,59.7
2017-08-06T09:59:17.750Z,59.9
2017-08-06T10:00:18.388Z,59.6
2017-08-06T10:01:19.027Z,59.9
2017-08-06T10:02:19.665Z,59.6
2017-08-06T10:03:20.306Z,59.6
2017-08-06T10:04:20.952Z,59.8
2017-08-06T10:05:21.586Z,59.4
2017-08-06T10:06:22.224Z,59.7
2017-08-06T10:07:22.862Z,59.8
2017-08-06T10:08:23.500Z,59.7
2017-08-06T10:09:24.136Z,59.4
2017-08-06T10:10:24.775Z,59.7
2017-08-06T10:11:25.413Z,59.6
2017-08-06T10:12:26.202Z,59.8
2017-08-06T10:13:26.843Z,59.8
2017-08-06T10:14:27.479Z,59.4
2017-08-06T10:15:28.120Z,59.4
2017-08-06T10:16:28.759Z,59.7
2017-08-06T10:17:29.399Z,59.9
2017-08-06T10:18:30.038Z,59.8
2017-08-06T10:19:30.676Z,59.7
2017-08-06T10:20:31.313Z,60.1
2017-08-06T10:21:31.952Z,59.9
2017-08-06T10:22:32.589Z,59.9
2017-08-06T10:23:33.227Z,60.0
2017-08-06T10:24:33.866Z,60.0
2017-08-06T10:25:34.504Z,59.8
2017-08-06T10:26:35.143Z,59.8
2017-08-06T10:27:36.037Z,59.6
2017-08-06T10:28:36.669Z,59.5
2017-08-06T10:29:37.308Z,59.4
2017-08-06T10:30:37.946Z,59.5
2017-08-06T10:31:38.587Z,59.7
2017-08-06T10:32:39.576Z,59.8
2017-08-06T10:33:40.214Z,59.7
2017-08-06T10:34:40.851Z,59.8
2017-08-06T10:35:41.491Z,59.6
2017-08-06T10:36:42.130Z,60.0
2017-08-06T10:37:42.769Z,59.9
2017-08-06T10:38:43.408Z,59.8
2017-08-06T10:39:44.046Z,59.8
2017-08-06T10:40:44.685Z,60.0
2017-08-06T10:41:45.324Z,60.0
2017-08-06T10:42:45.960Z,59.8
2017-08-06T10:43:46.598Z,59.7
2017-08-06T10:44:47.237Z,59.8
2017-08-06T10:45:47.876Z,59.4
2017-08-06T10:46:48.516Z,59.7
2017-08-06T10:47:49.305Z,59.6
2017-08-06T10:48:49.944Z,59.6
2017-08-06T10:49:50.583Z,59.5
2017-08-06T10:50:51.220Z,59.8
2017-08-06T10:51:51.857Z,59.6
2017-08-06T10:52:52.501Z,59.7
2017-08-06T10:53:53.133Z,59.4
2017-08-06T10:54:53.777Z,59.9
2017-08-06T10:55:54.418Z,59.9
2017-08-06T10:56:55.052Z,59.4
2017-08-06T10:57:55.689Z,59.8
2017-08-06T10:58:56.348Z,59.6
2017-08-06T10:59:56.967Z,59.8
2017-08-06T11:00:57.607Z,59.8
2017-08-06T11:01:58.245Z,60.0
2017-08-06T11:02:58.983Z,59.6
2017-08-06T11:03:59.622Z,59.7
2017-08-06T11:05:00.258Z,59.9
2017-08-06T11:06:00.897Z,59.8
2017-08-06T11:07:01.536Z,59.7
2017-08-06T11:08:02.176Z,59.7
2017-08-06T11:09:02.814Z,59.7
2017-08-06T11:10:03.451Z,59.9
2017-08-06T11:11:04.088Z,59.8
2017-08-06T11:12:04.766Z,59.7
2017-08-06T11:13:05.456Z,59.9
2017-08-06T11:14:06.095Z,59.9
2017-08-06T11:15:06.731Z,59.8
2017-08-06T11:16:07.370Z,60.0
2017-08-06T11:17:08.009Z,59.9
2017-08-06T11:18:08.799Z,59.8
2017-08-06T11:19:09.441Z,59.9
2017-08-06T11:20:10.081Z,59.9
2017-08-06T11:21:10.722Z,59.8
2017-08-06T11:22:11.359Z,59.8
2017-08-06T11:23:11.996Z,59.6
2017-08-06T11:24:12.632Z,59.7
2017-08-06T11:25:13.269Z,60.0
2017-08-06T11:26:13.907Z,59.6
2017-08-06T11:27:14.544Z,59.8
2017-08-06T11:28:15.184Z,60.0
2017-08-06T11:29:15.823Z,59.6
2017-08-06T11:30:16.460Z,59.8
2017-08-06T11:31:17.097Z,59.8
2017-08-06T11:32:17.741Z,59.7
2017-08-06T11:33:18.529Z,59.8
2017-08-06T11:34:19.167Z,59.7
2017-08-06T11:35:19.804Z,59.7
2017-08-06T11:36:20.443Z,59.7
2017-08-06T11:37:21.081Z,59.7
2017-08-06T11:38:21.720Z,59.7
2017-08-06T11:39:22.360Z,59.7
2017-08-06T11:40:23.001Z,59.8
2017-08-06T11:41:23.640Z,59.7
2017-08-06T11:42:24.279Z,59.7
2017-08-06T11:43:24.918Z,59.7
2017-08-06T11:44:25.557Z,59.6
2017-08-06T11:45:26.195Z,59.7
2017-08-06T11:46:26.832Z,59.7
2017-08-06T11:47:27.469Z,59.7
2017-08-06T11:48:28.210Z,59.7
2017-08-06T11:49:28.844Z,59.7
2017-08-06T11:50:29.481Z,59.7
2017-08-06T11:51:30.119Z,59.6
2017-08-06T11:52:30.756Z,60.0
2017-08-06T11:53:31.398Z,59.6
2017-08-06T11:54:32.037Z,59.6
2017-08-06T11:55:32.677Z,59.7
2017-08-06T11:56:33.314Z,60.1
2017-08-06T11:57:33.954Z,59.8
2017-08-06T11:58:34.592Z,59.8
2017-08-06T11:59:35.230Z,59.9
2017-08-06T12:00:35.890Z,59.7
2017-08-06T12:01:36.507Z,59.9
2017-08-06T12:02:37.145Z,59.8
2017-08-06T12:03:38.033Z,60.0
2017-08-06T12:04:38.673Z,59.7
2017-08-06T12:05:39.312Z,59.8
2017-08-06T12:06:39.952Z,59.7
2017-08-06T12:07:40.591Z,59.7
2017-08-06T12:08:41.230Z,59.6
2017-08-06T12:09:41.868Z,59.7
2017-08-06T12:10:42.506Z,59.9
2017-08-06T12:11:43.143Z,59.9
2017-08-06T12:12:43.780Z,59.5
2017-08-06T12:13:44.420Z,59.9
2017-08-06T12:14:45.057Z,59.7
2017-08-06T12:15:45.697Z,59.9
2017-08-06T12:16:46.335Z,59.9
2017-08-06T12:17:46.973Z,59.6
2017-08-06T12:18:47.869Z,59.9
2017-08-06T12:19:48.501Z,59.9
2017-08-06T12:20:49.141Z,59.9
2017-08-06T12:21:49.783Z,59.9
2017-08-06T12:22:50.419Z,59.9
2017-08-06T12:23:51.057Z,60.0
2017-08-06T12:24:51.695Z,59.7
2017-08-06T12:25:52.335Z,60.0
2017-08-06T12:26:52.973Z,59.6
2017-08-06T12:27:53.611Z,59.9
2017-08-06T12:28:54.249Z,59.9
2017-08-06T12:29:54.886Z,59.7
2017-08-06T12:30:55.523Z,60.0
2017-08-06T12:31:56.163Z,59.8
2017-08-06T12:32:57.403Z,59.7
2017-08-06T12:33:58.046Z,59.7
2017-08-06T12:34:58.682Z,59.9
2017-08-06T12:35:59.322Z,59.7
2017-08-06T12:36:59.960Z,59.5
2017-08-06T12:38:00.600Z,59.9
2017-08-06T12:39:01.238Z,59.8
2017-08-06T12:40:01.876Z,59.8
2017-08-06T12:41:02.513Z,59.9
2017-08-06T12:42:03.151Z,59.8
2017-08-06T12:43:03.793Z,59.9
2017-08-06T12:44:04.430Z,59.8
2017-08-06T12:45:05.072Z,59.8
2017-08-06T12:46:05.707Z,59.8
2017-08-06T12:47:06.346Z,60.0
2017-08-06T12:48:07.195Z,60.0
2017-08-06T12:49:07.833Z,59.9
2017-08-06T12:50:08.470Z,59.9
2017-08-06T12:51:09.108Z,59.9
2017-08-06T12:52:09.791Z,59.6
2017-08-06T12:53:10.425Z,59.8
2017-08-06T12:54:11.065Z,59.5
2017-08-06T12:55:11.703Z,59.6
2017-08-06T12:56:12.339Z,59.8
2017-08-06T12:57:12.977Z,59.9
2017-08-06T12:58:13.613Z,59.8
2017-08-06T12:59:14.254Z,59.4
2017-08-06T13:00:14.892Z,59.3
2017-08-06T13:01:15.532Z,59.1
2017-08-06T13:02:16.170Z,59.2
2017-08-06T13:03:16.908Z,59.3
2017-08-06T13:04:17.545Z,59.2
2017-08-06T13:05:18.186Z,59.2
2017-08-06T13:06:18.824Z,59.4
2017-08-06T13:07:19.464Z,59.2
2017-08-06T13:08:20.102Z,59.4
2017-08-06T13:09:20.742Z,59.3
2017-08-06T13:10:21.380Z,59.3
2017-08-06T13:11:22.019Z,59.4
2017-08-06T13:12:22.659Z,59.6
2017-08-06T13:13:23.295Z,59.4
2017-08-06T13:14:23.934Z,59.5
2017-08-06T13:15:24.568Z,59.2
2017-08-06T13:16:25.208Z,59.2
2017-08-06T13:17:25.847Z,59.3
2017-08-06T13:18:26.638Z,59.6
2017-08-06T13:19:27.283Z,59.5
2017-08-06T13:20:27.920Z,59.4
2017-08-06T13:21:28.558Z,58.9
2017-08-06T13:22:29.198Z,58.9
2017-08-06T13:23:29.837Z,58.9
2017-08-06T13:24:30.477Z,58.8
2017-08-06T13:25:31.113Z,59.7
2017-08-06T13:26:31.752Z,58.9
2017-08-06T13:27:32.388Z,58.9